Arminto, WY (82630)

1:28 AM MDT on October 26, 2014 (GMT -0600)
Natrona County International | Change Station
CLOSE
Current Station
Airport
Location: Casper,
Elevation: 5289 ft
Nearby Weather Stations
Active Advisory: Special Statement Active Notice: Record Report

Elev 5289 ft 42.90 °N, 106.47 °W | Updated 35 minutes ago

Clear
Clear
59 °F
Feels Like 59 °F
N
14
Wind Variable Wind from SW

Today
High -- | Low -- °F
--% Chance of Precip.
Yesterday
High -- | Low -- °F
Precip. -- in
7:36 AM 6:09 PM
Waxing Crescent, 6% visible
Pressure 29.68 in
Visibility 10.0 miles
Clouds Clear
Dew Point 28 °F
Humidity 31%
Rainfall 0.00 in
Snow Depth Not available.
UV 0 out of 12
Pollen 2.50 out of 12
Air Quality Not available.
Flu Activity Sporadic
METAR KCPR 260653Z AUTO 23012KT 10SM CLR 15/M02 A2987 RMK AO2 SLP051 T01501022 402500028

More Conditions Fewer Conditions

Pressure 29.68 in
Visibility 10.0 miles
Clouds Clear
Dew Point 28 °F
Humidity 31%
Rainfall 0.00 in
Snow Depth Not available.
UV 0 out of 12
Pollen 2.50 out of 12
Air Quality Not available.
Flu Activity Sporadic
METAR KCPR 260653Z AUTO 23012KT 10SM CLR 15/M02 A2987 RMK AO2 SLP051 T01501022 402500028

More Conditions Fewer Conditions

10-Day Weather Forecast

Almanac

Astronomy

Oct. 26, 2014 Rise Set
Actual Time 7:36 AM MDT 6:09 PM MDT
Civil Twilight 7:07 AM MDT 6:38 PM MDT
Nautical Twilight 6:34 AM MDT 7:11 PM MDT
Astronomical Twilight 6:01 AM MDT 7:44 PM MDT
Moon 10:20 AM MDT 8:20 PM MDT
Length of Visible Light 11h 31m
Length of Day
10h 32m
Tomorrow will be 2m 42s shorter.
Waxing Crescent, 6% of the Moon is Illuminated
Today
Waxing Crescent
Oct 30
First Quarter
Nov 6
Full
Nov 14
Last Quarter
Nov 22
New

Today's Extremes

State Highs State Lows

Community

WunderPhotos

Upload Photos

1,765,115 photos uploaded!

Nearby

Snow Depth

Station Depth Elevation
Reno Hill 0 in 8500 ft
Cloud Peak Reservoir 0 in 9860 ft
Laprele Creek 0 in 8375 ft
Dome Lake 0 in 8880 ft
Big Sandy Opening 1 in 9080 ft

Earthquake Activity

City Distance Mag. Time & Date
No recent earthquake activity has been reported nearby.
Minimum magnitude displayed is 2.5.

Coastal Water Temperatures

Place Temperature
No Stations Reporting

Nearby Weather Stations